Time;durP1;ratioP1;P1;durP2;ratioP2;P2;SDS_P1;SDS_P2;PMS_P1;PMS_P2;Temp;Humidity;BMP_temperature;BMP_pressure;BME280_temperature;BME280_humidity;BME280_pressure;Samples;Min_cycle;Max_cycle;Signal;HPM_P1;HPM_P2
2022/08/05 00:01:19;;;;;;;11.02;6.60;;;23.10;99.90;;;;;;5026029;28;20303;-89
2022/08/05 00:04:16;;;;;;;9.00;6.10;;;22.90;99.90;;;;;;5024550;28;20234;-88
2022/08/05 00:07:05;;;;;;;17.63;6.93;;;22.80;99.90;;;;;;5044638;28;20229;-87
2022/08/05 00:10:13;;;;;;;11.65;6.70;;;22.70;99.90;;;;;;5027465;28;20213;-88
2022/08/05 00:13:03;;;;;;;11.10;6.43;;;22.60;99.90;;;;;;5026179;28;20318;-88
2022/08/05 00:15:52;;;;;;;9.70;6.50;;;22.80;99.90;;;;;;5020726;28;20229;-83
2022/08/05 00:18:47;;;;;;;9.43;6.65;;;22.70;99.90;;;;;;5018937;28;20683;-82
2022/08/05 00:21:36;;;;;;;10.80;6.53;;;22.70;99.90;;;;;;5015576;28;20225;-83
2022/08/05 00:24:24;;;;;;;9.95;6.53;;;22.50;99.90;;;;;;5018048;28;20235;-81
2022/08/05 00:27:18;;;;;;;9.48;6.70;;;22.70;99.90;;;;;;5021945;28;20225;-83
2022/08/05 00:30:17;;;;;;;12.98;6.50;;;22.70;99.90;;;;;;5018592;28;20217;-83
2022/08/05 00:33:16;;;;;;;12.05;7.18;;;22.70;99.90;;;;;;5021343;28;20233;-83
2022/08/05 00:36:25;;;;;;;8.25;6.28;;;22.60;99.90;;;;;;5021014;28;20222;-83
2022/08/05 00:39:34;;;;;;;8.70;6.97;;;22.50;99.90;;;;;;5021667;28;20304;-83
2022/08/05 00:42:33;;;;;;;10.00;6.78;;;22.50;99.90;;;;;;5017301;28;20280;-83
2022/08/05 00:45:23;;;;;;;7.60;6.63;;;22.50;99.90;;;;;;5022315;28;20237;-83
2022/08/05 00:48:25;;;;;;;12.40;6.85;;;22.40;99.90;;;;;;5036725;28;21373;-83
2022/08/05 00:51:20;;;;;;;13.63;6.55;;;22.20;99.90;;;;;;5052769;28;20728;-84
2022/08/05 00:54:29;;;;;;;9.57;7.28;;;22.30;99.90;;;;;;5058296;28;20224;-84
2022/08/05 00:57:17;;;;;;;8.80;6.93;;;22.30;99.90;;;;;;5057185;28;20228;-84
2022/08/05 01:00:10;;;;;;;11.82;6.75;;;22.20;99.90;;;;;;5058882;28;20349;-83
2022/08/05 01:03:02;;;;;;;8.45;5.80;;;22.10;99.90;;;;;;5057626;28;20216;-84
2022/08/05 01:05:55;;;;;;;9.20;6.38;;;21.90;99.90;;;;;;5056697;28;20720;-86
2022/08/05 01:08:44;;;;;;;8.18;6.32;;;22.00;99.90;;;;;;5045557;28;20253;-84
2022/08/05 01:11:37;;;;;;;9.48;6.85;;;21.90;99.90;;;;;;5064184;28;20338;-83
2022/08/05 01:14:31;;;;;;;8.77;6.60;;;22.00;99.90;;;;;;5042682;28;20224;-83
2022/08/05 01:17:27;;;;;;;8.80;7.05;;;22.10;99.90;;;;;;5063773;28;20787;-89
2022/08/05 01:20:29;;;;;;;7.47;6.38;;;22.00;99.90;;;;;;5062563;28;20278;-87
2022/08/05 01:23:35;;;;;;;8.00;6.63;;;21.90;99.90;;;;;;5062711;28;20834;-88
2022/08/05 01:26:40;;;;;;;9.32;6.18;;;22.00;99.90;;;;;;5045923;28;20314;-90
2022/08/05 01:29:36;;;;;;;8.38;6.70;;;22.00;99.90;;;;;;5048611;28;20597;-89
2022/08/05 01:32:28;;;;;;;9.40;6.32;;;21.90;99.90;;;;;;5050397;28;20212;-89
2022/08/05 01:35:22;;;;;;;8.38;6.35;;;21.80;99.90;;;;;;5062682;28;20300;-86
2022/08/05 01:38:34;;;;;;;8.35;6.80;;;21.90;99.90;;;;;;5059179;28;20227;-86
2022/08/05 01:41:24;;;;;;;8.70;6.40;;;21.90;99.90;;;;;;5049914;28;20247;-86
2022/08/05 01:44:14;;;;;;;9.38;6.78;;;21.90;99.90;;;;;;5064183;28;21226;-85
2022/08/05 01:47:05;;;;;;;7.75;6.50;;;21.90;99.90;;;;;;5059458;28;20213;-84
2022/08/05 01:49:59;;;;;;;11.68;6.75;;;21.80;99.90;;;;;;5052745;28;20230;-83
2022/08/05 01:52:52;;;;;;;14.52;7.55;;;21.70;99.90;;;;;;5060592;28;20227;-83
2022/08/05 01:55:43;;;;;;;8.60;7.40;;;21.60;99.90;;;;;;5051159;28;20216;-87
2022/08/05 01:58:33;;;;;;;11.38;7.40;;;21.70;99.90;;;;;;5062394;28;20238;-86
2022/08/05 02:01:34;;;;;;;11.75;7.40;;;21.70;99.90;;;;;;5042884;28;20220;-86
2022/08/05 02:04:33;;;;;;;9.60;7.32;;;21.60;99.90;;;;;;5062702;28;20320;-87
2022/08/05 02:07:24;;;;;;;11.30;7.40;;;21.80;99.90;;;;;;5044044;28;20215;-87
2022/08/05 02:10:17;;;;;;;11.30;7.38;;;21.70;99.90;;;;;;5045377;28;20261;-88
2022/08/05 02:13:18;;;;;;;8.73;7.25;;;21.60;99.90;;;;;;5045647;28;20262;-88
2022/08/05 02:16:19;;;;;;;10.13;7.50;;;21.40;99.90;;;;;;5053475;28;20224;-85
2022/08/05 02:19:18;;;;;;;11.63;7.72;;;21.50;99.90;;;;;;5059191;28;20215;-87
2022/08/05 02:22:17;;;;;;;11.25;7.25;;;21.50;99.90;;;;;;5061103;28;20224;-86
2022/08/05 02:25:18;;;;;;;9.23;7.28;;;21.50;99.90;;;;;;5062113;28;20341;-88
2022/08/05 02:28:12;;;;;;;8.10;7.20;;;21.50;99.90;;;;;;5051227;28;20220;-85
2022/08/05 02:31:05;;;;;;;7.10;6.40;;;21.50;99.90;;;;;;5058829;28;20353;-85
2022/08/05 02:33:58;;;;;;;8.40;7.30;;;21.40;99.90;;;;;;5043266;28;20224;-84
2022/08/05 02:36:51;;;;;;;10.05;7.45;;;21.40;99.90;;;;;;5055818;28;20232;-86
2022/08/05 02:39:43;;;;;;;8.77;6.57;;;21.50;99.90;;;;;;5063971;28;20220;-86
2022/08/05 02:42:39;;;;;;;13.15;7.15;;;21.50;99.90;;;;;;5063131;28;20224;-84
2022/08/05 02:45:32;;;;;;;9.15;7.05;;;21.50;99.90;;;;;;5060447;28;20227;-84
2022/08/05 02:48:41;;;;;;;14.32;7.18;;;21.40;99.90;;;;;;5046720;28;20703;-85
2022/08/05 02:51:31;;;;;;;10.55;6.88;;;21.30;99.90;;;;;;5060547;28;20695;-84
2022/08/05 02:54:42;;;;;;;8.90;7.00;;;21.50;99.90;;;;;;5063009;28;20215;-85
2022/08/05 02:57:40;;;;;;;10.38;7.22;;;21.20;99.90;;;;;;5061407;28;20697;-87
2022/08/05 03:00:49;;;;;;;13.50;7.28;;;21.30;99.90;;;;;;5059504;28;20220;-86
2022/08/05 03:03:41;;;;;;;11.07;7.15;;;21.20;99.90;;;;;;5050204;28;20907;-87
2022/08/05 03:06:50;;;;;;;13.55;7.55;;;21.20;99.90;;;;;;5065945;28;20223;-87
2022/08/05 03:09:48;;;;;;;8.43;7.50;;;21.10;99.90;;;;;;5048298;28;20216;-87
2022/08/05 03:12:40;;;;;;;8.68;7.03;;;21.10;99.90;;;;;;5068056;28;20224;-88
2022/08/05 03:15:30;;;;;;;8.15;6.90;;;21.20;99.90;;;;;;5068997;28;20281;-87
2022/08/05 03:18:21;;;;;;;9.57;7.53;;;21.20;99.90;;;;;;5059316;28;20307;-88
2022/08/05 03:21:17;;;;;;;11.45;7.72;;;21.10;99.90;;;;;;5070419;28;20228;-87
2022/08/05 03:24:08;;;;;;;14.18;7.32;;;21.20;99.90;;;;;;5063510;28;20212;-87
2022/08/05 03:27:02;;;;;;;8.05;7.25;;;21.10;99.90;;;;;;5063697;28;20224;-88
2022/08/05 03:29:54;;;;;;;10.82;6.88;;;21.10;99.90;;;;;;5050540;28;20228;-90
2022/08/05 03:32:56;;;;;;;9.57;7.30;;;21.10;99.90;;;;;;5057001;28;20223;-89
2022/08/05 03:35:46;;;;;;;9.00;7.50;;;21.00;99.90;;;;;;5050167;28;20224;-88
2022/08/05 03:38:40;;;;;;;9.43;7.60;;;20.90;99.90;;;;;;5052817;28;20220;-86
2022/08/05 03:41:30;;;;;;;9.95;7.57;;;21.00;99.90;;;;;;5065854;28;20219;-87
2022/08/05 03:44:33;;;;;;;8.43;7.43;;;21.10;99.90;;;;;;5063627;28;20271;-88
2022/08/05 03:47:22;;;;;;;8.10;7.30;;;21.10;99.90;;;;;;5048057;28;20259;-88
2022/08/05 03:50:11;;;;;;;9.23;7.30;;;21.00;99.90;;;;;;5050850;28;20811;-89
2022/08/05 03:53:08;;;;;;;10.63;7.13;;;21.20;99.90;;;;;;5054708;28;20224;-88
2022/08/05 03:56:25;;;;;;;7.88;7.00;;;21.20;99.90;;;;;;5064921;28;20225;-89
2022/08/05 03:59:25;;;;;;;7.72;6.88;;;21.30;99.90;;;;;;5057448;28;21043;-89
2022/08/05 04:02:37;;;;;;;9.00;6.57;;;21.20;99.90;;;;;;5060689;28;20251;-86
2022/08/05 04:05:46;;;;;;;9.57;7.10;;;21.30;99.90;;;;;;5047902;28;20239;-85
2022/08/05 04:08:35;;;;;;;8.48;7.05;;;21.30;99.90;;;;;;5057858;28;20776;-86
2022/08/05 04:11:25;;;;;;;11.52;6.70;;;21.40;99.90;;;;;;5062129;28;20224;-85
2022/08/05 04:14:35;;;;;;;8.35;6.90;;;21.50;99.90;;;;;;5056750;28;21400;-86
2022/08/05 04:17:24;;;;;;;9.55;6.80;;;21.50;99.90;;;;;;5062033;28;20225;-86
2022/08/05 04:20:34;;;;;;;8.38;6.63;;;21.50;99.90;;;;;;5059710;28;20313;-84
2022/08/05 04:23:24;;;;;;;8.10;6.72;;;21.50;99.90;;;;;;5043227;28;20563;-84
2022/08/05 04:26:33;;;;;;;8.27;7.25;;;21.70;99.90;;;;;;5055279;28;20722;-86
2022/08/05 04:29:22;;;;;;;9.05;6.95;;;21.80;99.90;;;;;;5048085;28;20224;-88
2022/08/05 04:32:10;;;;;;;9.27;7.32;;;21.90;99.90;;;;;;5060921;28;20217;-87
2022/08/05 04:34:59;;;;;;;7.82;6.85;;;21.80;99.90;;;;;;5070346;28;20224;-88
2022/08/05 04:37:49;;;;;;;8.73;6.90;;;21.80;99.90;;;;;;5068506;28;20228;-88
2022/08/05 04:40:53;;;;;;;9.15;6.93;;;22.00;99.90;;;;;;5065819;28;20239;-89
2022/08/05 04:43:42;;;;;;;9.32;7.63;;;22.00;99.90;;;;;;5065701;28;20230;-87
2022/08/05 04:46:39;;;;;;;12.40;8.05;;;22.00;99.90;;;;;;5076017;28;20612;-88
2022/08/05 04:49:34;;;;;;;9.27;8.05;;;22.00;99.90;;;;;;5040134;28;20243;-90
2022/08/05 04:52:42;;;;;;;12.43;8.48;;;22.10;99.90;;;;;;5036471;28;20237;-88
2022/08/05 04:55:33;;;;;;;12.55;8.57;;;22.10;99.90;;;;;;5021762;28;20267;-87
2022/08/05 04:58:42;;;;;;;11.10;8.88;;;22.20;99.90;;;;;;5025256;28;20224;-86
2022/08/05 05:01:31;;;;;;;12.93;9.02;;;22.40;99.90;;;;;;5016844;28;20225;-87
2022/08/05 05:04:40;;;;;;;11.77;9.27;;;22.50;99.90;;;;;;5031969;28;20264;-85
2022/08/05 05:07:35;;;;;;;10.68;9.60;;;22.30;99.90;;;;;;5023137;28;20221;-87
2022/08/05 05:10:40;;;;;;;13.35;10.77;;;22.30;99.90;;;;;;5020322;28;20550;-85
2022/08/05 05:13:43;;;;;;;10.80;9.70;;;22.50;99.90;;;;;;5016112;28;20221;-87
2022/08/05 05:16:32;;;;;;;10.57;9.48;;;22.60;99.90;;;;;;5036301;28;20231;-88
2022/08/05 05:19:20;;;;;;;15.18;10.35;;;22.70;99.90;;;;;;5039720;28;20229;-88
2022/08/05 05:22:13;;;;;;;14.18;10.45;;;22.80;99.90;;;;;;5024703;28;20221;-86
2022/08/05 05:25:13;;;;;;;11.52;10.18;;;22.90;99.90;;;;;;5018382;28;20226;-87
2022/08/05 05:28:05;;;;;;;14.35;10.52;;;23.00;99.90;;;;;;5032003;28;20232;-88
2022/08/05 05:30:54;;;;;;;12.45;10.25;;;23.00;99.90;;;;;;5036976;28;20224;-85
2022/08/05 05:33:43;;;;;;;11.40;10.23;;;23.20;99.90;;;;;;5022391;28;20226;-87
2022/08/05 05:36:47;;;;;;;11.82;10.63;;;23.20;99.90;;;;;;5021153;28;20228;-88
2022/08/05 05:39:38;;;;;;;12.55;10.98;;;23.30;99.90;;;;;;5023142;28;20249;-87
2022/08/05 05:42:30;;;;;;;12.13;10.75;;;23.40;99.90;;;;;;5026046;28;20289;-87
2022/08/05 05:45:21;;;;;;;11.48;9.90;;;23.40;99.90;;;;;;5018573;28;20221;-84
2022/08/05 05:48:11;;;;;;;11.75;10.10;;;23.50;99.90;;;;;;5046843;28;20395;-90
2022/08/05 05:51:03;;;;;;;12.82;9.20;;;23.50;99.90;;;;;;5040863;28;20217;-87
2022/08/05 05:54:03;;;;;;;9.95;8.57;;;23.70;99.90;;;;;;5058208;28;20231;-90
2022/08/05 05:56:58;;;;;;;10.88;9.60;;;23.80;99.90;;;;;;5059243;28;20743;-88
2022/08/05 05:59:47;;;;;;;10.20;9.15;;;23.90;99.90;;;;;;5045665;28;20229;-90
2022/08/05 06:02:41;;;;;;;11.20;8.80;;;24.10;99.90;;;;;;5044819;28;20285;-92
2022/08/05 06:05:30;;;;;;;10.02;8.60;;;25.30;99.90;;;;;;5044076;28;20228;-88
2022/08/05 06:08:19;;;;;;;12.05;8.95;;;25.10;99.90;;;;;;5039678;28;20709;-94
2022/08/05 06:11:20;;;;;;;10.98;8.13;;;26.80;99.90;;;;;;5059188;28;20329;-91
2022/08/05 06:14:08;;;;;;;12.38;8.30;;;28.70;99.90;;;;;;5056279;28;20228;-91
2022/08/05 06:16:58;;;;;;;11.05;7.78;;;28.50;99.90;;;;;;5063293;28;20743;-90
2022/08/05 06:19:51;;;;;;;11.18;7.47;;;27.20;99.90;;;;;;5070528;28;20217;-90
2022/08/05 06:22:46;;;;;;;12.68;7.25;;;26.40;99.90;;;;;;5066767;28;20302;-91
2022/08/05 06:25:35;;;;;;;9.00;8.07;;;25.70;99.90;;;;;;5049034;28;20705;-92
2022/08/05 06:28:44;;;;;;;10.30;7.22;;;25.20;99.90;;;;;;5042196;28;20327;-88
2022/08/05 06:31:33;;;;;;;11.32;8.25;;;25.30;99.90;;;;;;5049305;28;20221;-81
2022/08/05 06:34:23;;;;;;;10.65;7.65;;;25.30;99.90;;;;;;5040048;28;20232;-82
2022/08/05 06:37:16;;;;;;;10.50;8.02;;;25.30;99.90;;;;;;5049197;28;20216;-82
2022/08/05 06:40:25;;;;;;;10.80;7.63;;;25.30;99.90;;;;;;5049788;28;20248;-83
2022/08/05 06:43:20;;;;;;;11.65;7.65;;;25.30;99.90;;;;;;5035336;28;20343;-83
2022/08/05 06:46:28;;;;;;;9.80;7.40;;;25.70;99.90;;;;;;5034603;28;20828;-83
2022/08/05 06:49:18;;;;;;;10.88;7.70;;;25.80;99.90;;;;;;5054626;28;20235;-86
2022/08/05 06:52:28;;;;;;;9.60;8.13;;;25.80;99.90;;;;;;5042343;28;20585;-82
2022/08/05 06:55:27;;;;;;;10.50;8.18;;;25.70;99.90;;;;;;5054831;28;20227;-82
2022/08/05 06:58:23;;;;;;;11.45;6.72;;;25.80;99.90;;;;;;5037667;28;20224;-83
2022/08/05 07:01:24;;;;;;;10.45;7.57;;;25.80;99.90;;;;;;5060582;28;20220;-83
2022/08/05 07:04:20;;;;;;;7.75;6.93;;;25.90;99.90;;;;;;5057811;28;20488;-83
2022/08/05 07:07:08;;;;;;;9.43;7.10;;;25.80;99.90;;;;;;5058324;28;20256;-84
2022/08/05 07:09:58;;;;;;;7.60;6.60;;;26.00;99.90;;;;;;5055793;28;20217;-83
2022/08/05 07:19:22;;;;;;;6.53;5.88;;;26.50;99.90;;;;;;5044635;28;20247;-84
2022/08/05 07:22:30;;;;;;;10.52;6.30;;;26.60;99.90;;;;;;5045736;28;20220;-84
2022/08/05 07:25:21;;;;;;;8.65;6.15;;;26.80;99.90;;;;;;5056798;28;20930;-83
2022/08/05 07:28:30;;;;;;;8.30;5.78;;;26.90;99.90;;;;;;5055540;28;20308;-85
2022/08/05 07:31:19;;;;;;;9.40;6.20;;;27.10;99.90;;;;;;5053522;28;20224;-88
2022/08/05 07:34:27;;;;;;;7.60;5.05;;;27.20;99.90;;;;;;5050660;28;20758;-86
2022/08/05 07:37:16;;;;;;;9.40;5.18;;;27.50;99.90;;;;;;5051610;28;20220;-90
2022/08/05 07:40:08;;;;;;;7.90;4.97;;;27.80;99.90;;;;;;5084960;28;20231;-89
2022/08/05 07:43:18;;;;;;;6.43;5.75;;;28.10;99.90;;;;;;5050334;28;20216;-89
2022/08/05 07:46:08;;;;;;;6.97;5.22;;;28.20;99.90;;;;;;5053530;28;20220;-88
2022/08/05 07:49:13;;;;;;;5.88;5.07;;;28.40;99.90;;;;;;5027339;28;20598;-87
2022/08/05 07:52:01;;;;;;;5.70;5.20;;;28.90;99.90;;;;;;5033615;28;20783;-86
2022/08/05 07:54:50;;;;;;;6.47;5.38;;;29.00;99.90;;;;;;5017640;28;20225;-86
2022/08/05 07:57:40;;;;;;;5.72;5.22;;;29.10;99.90;;;;;;5030166;28;20299;-86
2022/08/05 08:00:50;;;;;;;7.68;4.82;;;29.20;99.90;;;;;;5015845;28;20721;-85
2022/08/05 08:03:39;;;;;;;6.20;5.00;;;29.40;99.90;;;;;;5035989;28;20229;-86
2022/08/05 08:06:32;;;;;;;5.35;4.72;;;29.60;99.90;;;;;;5020364;28;20240;-85
2022/08/05 08:09:23;;;;;;;5.07;4.57;;;30.10;99.90;;;;;;5031435;28;20320;-89
2022/08/05 08:12:17;;;;;;;4.90;4.50;;;30.00;99.90;;;;;;5021696;28;21132;-89
2022/08/05 08:15:25;;;;;;;5.20;4.70;;;30.50;99.90;;;;;;5019976;28;20221;-85
2022/08/05 08:18:35;;;;;;;5.25;4.72;;;30.70;99.90;;;;;;5032160;28;20226;-87
2022/08/05 08:21:24;;;;;;;6.25;4.80;;;31.10;99.90;;;;;;5017937;28;20221;-88
2022/08/05 08:24:14;;;;;;;5.43;4.90;;;31.40;98.30;;;;;;5019655;28;20229;-87
2022/08/05 08:27:04;;;;;;;5.20;4.70;;;31.70;97.50;;;;;;5023430;28;20324;-91
2022/08/05 08:29:54;;;;;;;5.25;4.55;;;32.00;95.90;;;;;;5019130;28;20232;-88
2022/08/05 08:33:07;;;;;;;5.55;4.60;;;32.10;94.70;;;;;;5021493;28;20225;-88
2022/08/05 08:36:02;;;;;;;7.93;4.97;;;32.40;92.90;;;;;;5029191;28;20236;-86
2022/08/05 08:39:11;;;;;;;5.10;4.63;;;32.40;93.10;;;;;;5034948;28;20236;-88
2022/08/05 08:42:04;;;;;;;5.47;4.40;;;32.60;92.40;;;;;;5030495;28;20221;-87
2022/08/05 08:45:04;;;;;;;6.18;4.85;;;32.90;92.70;;;;;;5024994;28;20422;-88
2022/08/05 08:48:16;;;;;;;7.63;4.60;;;32.60;90.80;;;;;;5057028;28;20231;-89
2022/08/05 08:51:33;;;;;;;5.82;4.88;;;33.20;89.70;;;;;;5045036;28;20216;-85
2022/08/05 08:54:43;;;;;;;6.38;4.88;;;33.10;88.90;;;;;;5040725;28;20219;-88
2022/08/05 08:57:34;;;;;;;7.00;4.80;;;33.30;90.80;;;;;;5037335;28;20221;-87
2022/08/05 09:00:36;;;;;;;8.45;5.03;;;33.70;90.50;;;;;;5043809;28;20224;-89
2022/08/05 09:03:25;;;;;;;7.82;4.60;;;33.60;86.10;;;;;;5048456;28;20220;-88
2022/08/05 09:06:31;;;;;;;8.02;4.72;;;33.50;84.20;;;;;;5055291;28;20709;-86
2022/08/05 09:09:23;;;;;;;5.75;4.50;;;33.50;84.60;;;;;;5043682;28;20222;-88
2022/08/05 09:12:13;;;;;;;4.65;3.90;;;33.90;82.70;;;;;;5058979;28;20227;-85
2022/08/05 09:15:14;;;;;;;4.97;4.57;;;34.10;81.90;;;;;;5042256;28;20212;-83
2022/08/05 09:18:03;;;;;;;6.32;4.50;;;34.30;82.10;;;;;;5038156;28;20226;-86
2022/08/05 09:20:52;;;;;;;4.63;4.22;;;34.40;80.20;;;;;;5051920;28;20561;-83
2022/08/05 09:23:45;;;;;;;9.75;4.28;;;34.20;82.00;;;;;;5050247;28;20231;-82
2022/08/05 09:26:35;;;;;;;7.95;4.55;;;34.60;79.70;;;;;;5034204;28;20285;-84
2022/08/05 09:29:38;;;;;;;8.25;4.20;;;34.80;77.60;;;;;;5036095;28;20228;-83
2022/08/05 09:32:36;;;;;;;10.60;4.30;;;35.20;76.50;;;;;;5048473;28;20712;-83
2022/08/05 09:35:34;;;;;;;4.82;4.05;;;35.70;76.80;;;;;;5048668;28;20220;-83
2022/08/05 09:38:24;;;;;;;8.20;3.95;;;35.90;72.50;;;;;;5045726;28;20239;-84
2022/08/05 09:41:18;;;;;;;6.40;4.00;;;36.00;71.70;;;;;;5034824;28;20240;-85
2022/08/05 09:44:07;;;;;;;5.32;3.85;;;36.00;71.70;;;;;;5054724;28;20754;-91
2022/08/05 09:47:09;;;;;;;5.10;3.70;;;36.30;70.00;;;;;;5061764;28;20248;-90
2022/08/05 09:50:03;;;;;;;7.07;3.78;;;36.40;69.10;;;;;;5036921;28;20366;-87
2022/08/05 09:52:58;;;;;;;4.80;3.70;;;36.90;68.50;;;;;;5043274;28;20307;-85
2022/08/05 09:55:53;;;;;;;4.40;3.60;;;37.20;68.80;;;;;;5053748;28;20224;-86
2022/08/05 09:59:01;;;;;;;4.97;3.60;;;37.70;65.60;;;;;;5052852;28;20227;-85
2022/08/05 10:01:51;;;;;;;3.85;3.38;;;38.60;63.70;;;;;;5042183;28;20235;-86
2022/08/05 10:04:47;;;;;;;4.03;3.60;;;39.10;61.50;;;;;;5047083;28;20230;-85
2022/08/05 10:08:00;;;;;;;4.93;3.70;;;39.30;59.70;;;;;;5037126;28;20223;-85
2022/08/05 10:11:14;;;;;;;3.72;3.40;;;39.80;59.20;;;;;;5036091;28;20979;-85
2022/08/05 10:14:22;;;;;;;6.30;3.53;;;39.80;59.90;;;;;;5045355;28;20654;-85
2022/08/05 10:17:15;;;;;;;3.60;3.22;;;39.80;58.70;;;;;;5046038;28;20232;-86
2022/08/05 10:20:25;;;;;;;4.82;3.33;;;39.70;57.90;;;;;;5045756;28;20228;-86
2022/08/05 10:23:17;;;;;;;8.90;3.60;;;40.00;57.60;;;;;;5047215;28;20582;-86
2022/08/05 10:26:26;;;;;;;4.15;3.30;;;39.20;58.40;;;;;;5031045;28;20247;-86
2022/08/05 10:29:23;;;;;;;7.78;3.50;;;40.20;57.70;;;;;;5051493;28;20232;-83
2022/08/05 10:32:32;;;;;;;5.03;3.53;;;41.10;55.90;;;;;;5036869;28;20314;-85
2022/08/05 10:35:41;;;;;;;5.20;3.50;;;41.90;56.10;;;;;;5034973;28;20278;-85
2022/08/05 10:38:34;;;;;;;3.88;3.25;;;42.00;54.20;;;;;;5050461;28;20240;-82
2022/08/05 10:41:32;;;;;;;5.82;3.35;;;42.50;53.50;;;;;;5036257;28;20358;-85
2022/08/05 10:44:37;;;;;;;3.53;2.88;;;42.70;53.00;;;;;;5041942;28;20251;-84
2022/08/05 10:47:39;;;;;;;3.40;3.10;;;42.80;53.20;;;;;;5051847;28;20228;-89
2022/08/05 10:50:58;;;;;;;6.18;2.92;;;43.70;51.20;;;;;;5043385;28;20215;-89
2022/08/05 10:53:56;;;;;;;3.78;3.20;;;43.10;50.90;;;;;;5049527;28;20227;-92
2022/08/05 10:56:47;;;;;;;12.95;3.47;;;43.70;51.40;;;;;;5063854;28;20215;-80
2022/08/05 10:59:38;;;;;;;5.38;3.08;;;44.00;50.90;;;;;;5057391;28;20901;-82
2022/08/05 11:03:13;;;;;;;6.45;3.17;;;43.80;50.60;;;;;;5064172;28;20244;-88
2022/08/05 11:06:15;;;;;;;8.48;3.13;;;43.20;51.50;;;;;;5048342;28;20215;-89
2022/08/05 11:09:18;;;;;;;5.25;3.30;;;43.30;51.20;;;;;;5069605;28;20271;-88
2022/08/05 11:12:44;;;;;;;4.30;2.75;;;43.40;50.30;;;;;;5068456;28;20223;-87
2022/08/05 11:15:45;;;;;;;5.25;3.30;;;43.60;51.00;;;;;;5068413;28;20223;-87
2022/08/05 11:19:09;;;;;;;4.82;2.83;;;42.70;50.20;;;;;;5063483;28;20369;-89
2022/08/05 11:22:46;;;;;;;4.60;3.08;;;43.20;50.10;;;;;;5053599;28;20233;-87
2022/08/05 11:25:42;;;;;;;11.85;2.92;;;43.10;49.90;;;;;;5026471;28;20212;-85
2022/08/05 11:28:52;;;;;;;5.63;3.00;;;42.90;49.80;;;;;;5069853;28;20238;-87
2022/08/05 11:31:44;;;;;;;3.40;2.95;;;43.30;49.40;;;;;;5055392;28;20216;-87
2022/08/05 11:34:47;;;;;;;4.93;3.30;;;43.70;48.70;;;;;;5050810;28;20308;-90
2022/08/05 11:38:05;;;;;;;5.88;3.10;;;45.10;48.00;;;;;;5049294;28;20721;-86
2022/08/05 11:41:17;;;;;;;3.78;3.35;;;45.90;46.90;;;;;;5051564;28;20211;-90
2022/08/05 11:44:37;;;;;;;4.82;3.08;;;46.10;48.60;;;;;;5053407;28;20227;-89
2022/08/05 11:47:42;;;;;;;5.50;3.47;;;46.50;46.40;;;;;;5071238;28;20231;-90
2022/08/05 11:50:38;;;;;;;5.60;3.42;;;47.90;44.90;;;;;;5047033;28;20289;-88
2022/08/05 11:53:27;;;;;;;6.25;3.53;;;47.50;44.80;;;;;;5059561;28;20331;-89
2022/08/05 11:56:43;;;;;;;4.68;3.20;;;48.40;43.60;;;;;;5059752;28;21023;-86
2022/08/05 11:59:38;;;;;;;4.18;3.28;;;48.90;43.70;;;;;;5039142;28;20329;-87
2022/08/05 12:02:37;;;;;;;3.88;3.30;;;48.70;43.00;;;;;;5056428;28;20216;-87
2022/08/05 12:05:29;;;;;;;4.28;3.00;;;48.20;42.70;;;;;;5053668;28;20238;-86
2022/08/05 12:08:24;;;;;;;4.07;3.22;;;48.20;42.70;;;;;;5075422;28;20204;-87
2022/08/05 12:11:18;;;;;;;3.17;2.97;;;47.60;43.20;;;;;;5067047;28;20216;-89
2022/08/05 12:14:08;;;;;;;5.28;3.33;;;47.60;44.10;;;;;;5049472;28;20779;-85
2022/08/05 12:16:57;;;;;;;6.45;3.25;;;47.80;43.10;;;;;;5066122;28;20866;-86
2022/08/05 12:19:50;;;;;;;4.53;3.47;;;48.10;43.10;;;;;;5060978;28;20597;-87
2022/08/05 12:23:11;;;;;;;4.85;3.50;;;47.70;41.70;;;;;;5066969;28;20588;-86
2022/08/05 12:26:00;;;;;;;9.07;3.70;;;47.50;42.30;;;;;;5059347;28;20207;-88
2022/08/05 12:28:49;;;;;;;5.47;3.45;;;48.50;42.50;;;;;;5047526;28;20223;-87
2022/08/05 12:31:38;;;;;;;5.80;3.58;;;49.10;42.30;;;;;;5058346;28;20216;-88
2022/08/05 12:34:38;;;;;;;5.20;3.80;;;49.20;41.90;;;;;;5065671;28;20703;-90
2022/08/05 12:37:27;;;;;;;6.32;3.75;;;47.60;42.80;;;;;;5064807;28;20219;-85
2022/08/05 12:40:23;;;;;;;5.63;3.47;;;44.50;43.70;;;;;;5062978;28;20750;-86
2022/08/05 12:43:16;;;;;;;7.40;4.45;;;40.40;48.20;;;;;;5048132;28;20222;-87
2022/08/05 12:46:20;;;;;;;5.53;4.20;;;39.00;51.40;;;;;;5046087;28;20232;-87
2022/08/05 12:49:17;;;;;;;6.68;4.22;;;37.90;53.20;;;;;;5044997;28;20223;-86
2022/08/05 12:52:13;;;;;;;4.93;4.30;;;37.10;54.40;;;;;;5063997;28;20223;-87
2022/08/05 12:55:21;;;;;;;6.72;4.35;;;36.30;55.20;;;;;;5048163;28;20226;-87
2022/08/05 12:58:23;;;;;;;11.30;4.82;;;35.70;57.00;;;;;;5047546;28;20219;-88
2022/08/05 13:01:32;;;;;;;7.10;4.75;;;35.70;58.00;;;;;;5045162;28;20230;-87
2022/08/05 13:04:43;;;;;;;5.30;4.57;;;35.50;58.40;;;;;;5057570;28;20223;-87
2022/08/05 13:07:45;;;;;;;6.28;4.53;;;35.00;59.00;;;;;;5057168;28;20604;-86
2022/08/05 13:10:59;;;;;;;7.32;4.60;;;34.80;59.70;;;;;;5047638;28;20674;-86
2022/08/05 13:13:50;;;;;;;5.47;4.72;;;34.90;60.00;;;;;;5056726;28;20328;-80
2022/08/05 13:16:56;;;;;;;9.30;4.88;;;34.60;61.00;;;;;;5046499;28;20272;-83
2022/08/05 13:20:02;;;;;;;7.43;4.65;;;34.50;60.50;;;;;;5050288;28;20788;-83
2022/08/05 13:22:53;;;;;;;6.32;4.70;;;34.40;60.90;;;;;;5058667;28;20292;-83
2022/08/05 13:25:41;;;;;;;5.50;5.00;;;34.30;61.80;;;;;;5063317;28;20235;-78
2022/08/05 13:28:48;;;;;;;8.02;4.55;;;34.30;61.50;;;;;;5058890;28;20231;-80
2022/08/05 13:31:40;;;;;;;7.13;4.90;;;33.80;62.40;;;;;;5059985;28;20228;-79
2022/08/05 13:34:50;;;;;;;5.63;4.60;;;33.90;62.10;;;;;;5063078;28;20585;-77
2022/08/05 13:37:38;;;;;;;6.30;4.28;;;33.70;63.20;;;;;;5063444;28;20224;-78
2022/08/05 13:40:27;;;;;;;6.15;4.38;;;33.70;62.70;;;;;;5056784;28;20220;-78
2022/08/05 13:43:36;;;;;;;5.45;4.13;;;33.70;62.80;;;;;;5061921;28;20696;-81
2022/08/05 13:46:43;;;;;;;9.40;4.88;;;33.20;63.70;;;;;;5060881;28;20216;-78
2022/08/05 13:49:52;;;;;;;5.90;5.13;;;33.00;63.70;;;;;;5048505;28;20227;-79
2022/08/05 13:52:41;;;;;;;7.45;4.90;;;33.00;64.30;;;;;;5047288;28;20223;-78
2022/08/05 13:55:31;;;;;;;5.80;4.95;;;33.10;65.10;;;;;;5059663;28;20243;-78
2022/08/05 13:58:30;;;;;;;5.93;4.80;;;32.90;64.40;;;;;;5039909;28;20216;-76
2022/08/05 14:01:18;;;;;;;5.15;4.75;;;33.00;64.50;;;;;;5060390;28;20276;-81
2022/08/05 14:07:24;;;;;;;6.75;4.72;;;32.80;65.40;;;;;;5043770;28;20220;-79
2022/08/05 14:10:34;;;;;;;5.18;4.68;;;32.70;64.70;;;;;;5059204;28;20300;-84
2022/08/05 14:13:24;;;;;;;6.03;4.80;;;32.70;65.10;;;;;;5055725;28;20224;-82
2022/08/05 14:16:13;;;;;;;6.97;4.78;;;32.80;65.80;;;;;;5054509;28;20231;-78
2022/08/05 14:19:06;;;;;;;8.68;5.30;;;32.80;66.60;;;;;;5045706;28;20216;-78
2022/08/05 14:21:59;;;;;;;5.90;4.82;;;32.70;67.70;;;;;;5060367;28;20220;-77
2022/08/05 14:24:59;;;;;;;8.45;5.03;;;32.50;66.70;;;;;;5064406;28;20295;-78
2022/08/05 14:27:48;;;;;;;7.30;5.00;;;32.50;66.60;;;;;;5057195;28;20596;-77
2022/08/05 14:30:36;;;;;;;5.47;4.90;;;32.30;67.10;;;;;;5055300;28;20596;-79
2022/08/05 14:33:33;;;;;;;4.93;4.50;;;32.40;67.20;;;;;;5061076;28;20588;-78
2022/08/05 14:36:42;;;;;;;6.65;5.07;;;32.30;67.40;;;;;;5049826;28;20219;-78
2022/08/05 14:39:37;;;;;;;9.60;5.43;;;32.30;67.20;;;;;;5048536;28;20282;-80
2022/08/05 14:42:39;;;;;;;5.78;4.97;;;32.10;67.90;;;;;;5063823;28;20210;-80
2022/08/05 14:45:32;;;;;;;10.38;5.50;;;32.10;68.40;;;;;;5070791;28;20228;-79
2022/08/05 14:48:21;;;;;;;6.45;5.03;;;32.20;68.50;;;;;;5046890;28;20236;-79
2022/08/05 14:51:21;;;;;;;11.32;5.45;;;32.10;68.80;;;;;;5061091;28;20236;-79
2022/08/05 14:54:11;;;;;;;10.15;5.30;;;32.30;69.90;;;;;;5065631;28;20250;-79
2022/08/05 14:57:17;;;;;;;8.77;5.53;;;32.10;69.20;;;;;;5046959;28;20763;-78
2022/08/05 15:00:08;;;;;;;6.10;5.50;;;32.10;69.60;;;;;;5066984;28;20288;-80
2022/08/05 15:02:57;;;;;;;8.43;6.00;;;32.10;69.80;;;;;;5062543;28;20358;-78
2022/08/05 15:05:46;;;;;;;5.22;4.82;;;32.10;69.60;;;;;;5063274;28;20236;-80
2022/08/05 15:08:55;;;;;;;5.80;5.28;;;31.90;69.50;;;;;;5065722;28;20227;-80
2022/08/05 15:11:51;;;;;;;6.82;5.30;;;31.90;70.70;;;;;;5062000;28;20235;-80
2022/08/05 15:14:42;;;;;;;6.15;5.55;;;32.00;70.30;;;;;;5064163;28;21535;-80
2022/08/05 15:17:37;;;;;;;6.82;5.40;;;31.90;70.70;;;;;;5064598;28;20275;-81
2022/08/05 15:20:35;;;;;;;10.43;6.03;;;31.80;70.80;;;;;;5066372;28;20235;-83
2022/08/05 15:23:25;;;;;;;9.02;5.60;;;31.80;71.20;;;;;;5044414;28;20227;-79
2022/08/05 15:26:16;;;;;;;9.80;5.72;;;31.70;71.50;;;;;;5044347;28;20304;-80
2022/08/05 15:29:19;;;;;;;6.78;5.50;;;31.70;71.70;;;;;;5067539;28;20223;-80